Latest Weather Observations for Luncheon Hill

IDT60801

Issued at 7:01 pm EST Saturday 29 August 2015 (issued every 30 minutes, with the page automatically refreshed every 10 minutes)

About weather observations | Map of weather stations | Latest weather observations for TAS | Other Formats
Station Details ID: 091259 Name: LUNCHEON HILL (FORESTRY) Lat: -41.15 Lon: 145.15 Height: 344.0 m
Data from the previous 72 hours. | See also: Recent months at Luncheon Hill
Date/Time
EST
Temp
°C
App
Temp
°C
Dew
Point
Rel
Hum
%
Delta-T
°C
Wind Press
QNH
hPa
Press
MSL
hPa
Rain
since 9 am
mm
Dir
 
Spd
km/h
Gust
km/h
Spd
kts
Gust
kts
29/07:00pm 5.3 -1.4 3.6 89 0.7 S 28 44 15 24 - - 0.0
29/06:30pm 5.6 -1.1 3.6 87 0.9 S 28 46 15 25 - - 0.0
29/06:28pm 5.6 -1.1 3.4 86 0.9 S 28 46 15 25 - - 0.0
29/06:00pm 6.1 -0.6 3.6 84 1.1 S 28 44 15 24 - - 0.0
29/05:30pm 7.1 0.5 4.1 81 1.3 S 28 46 15 25 - - 0.0
29/05:08pm 7.6 1.0 4.0 78 1.6 S 28 52 15 28 - - 0.0
29/05:00pm 8.2 2.0 4.4 77 1.7 S 26 43 14 23 - - 0.0
29/04:36pm 8.4 1.9 4.6 77 1.7 S 28 46 15 25 - - 0.0
29/04:30pm 8.8 3.1 5.0 77 1.7 S 24 35 13 19 - - 0.0
29/04:00pm 8.9 2.4 4.5 74 2.0 S 28 54 15 29 - - 0.0
29/03:30pm 9.4 1.5 4.4 71 2.3 S 35 54 19 29 - - 0.0
29/03:00pm 10.0 3.3 5.4 73 2.1 S 30 48 16 26 - - 0.0
29/02:30pm 9.7 2.9 4.9 72 2.2 S 30 48 16 26 - - 0.0
29/02:12pm 9.7 3.3 5.3 74 2.0 S 28 50 15 27 - - 0.0
29/02:00pm 9.6 4.8 5.4 75 1.9 S 20 35 11 19 - - 0.0
29/01:30pm 10.2 3.9 5.8 74 2.1 S 28 56 15 30 - - 0.0
29/01:00pm 10.6 3.9 5.6 71 2.3 S 30 52 16 28 - - 0.0
29/12:31pm 10.3 3.8 6.3 76 1.9 S 30 48 16 26 - - 0.0
29/12:30pm 10.4 3.9 6.5 77 1.9 S 30 46 16 25 - - 0.0
29/12:00pm 9.3 2.2 5.7 78 1.7 S 32 52 17 28 - - 0.0
29/11:30am 8.9 1.2 5.5 79 1.6 S 35 59 19 32 - - 0.0
29/11:14am 9.2 1.2 5.9 80 1.5 S 37 65 20 35 - - 0.0
29/11:07am 8.9 2.6 5.6 80 1.5 S 28 46 15 25 - - 0.0
29/11:00am 9.0 2.0 5.9 81 1.4 S 32 46 17 25 - - 0.0
29/10:30am 9.2 2.4 6.8 85 1.1 S 32 54 17 29 - - 0.0
29/10:00am 8.0 1.1 6.3 89 0.8 S 32 57 17 31 - - 0.0
29/09:30am 7.1 0.2 6.4 95 0.3 S 32 50 17 27 - - 0.0
29/09:09am 6.8 0.7 6.7 99 0.0 S 28 50 15 27 - - 0.0
29/09:00am 6.7 1.7 6.6 99 0.0 S 22 41 12 22 - - 1.0
29/08:43am 6.5 0.4 6.4 99 0.0 SSW 28 56 15 30 - - 1.0
29/08:30am 6.4 1.0 6.3 99 0.0 SSW 24 35 13 19 - - 1.0
29/08:00am 6.1 0.6 6.0 99 0.0 SSW 24 43 13 23 - - 1.0
29/07:34am 5.8 -0.5 5.7 99 0.0 SSW 28 48 15 26 - - 1.0
29/07:30am 5.7 -0.6 5.6 99 0.0 SSW 28 44 15 24 - - 1.0
29/07:14am 5.5 -0.9 5.4 99 0.0 SSW 28 46 15 25 - - 1.0
29/07:00am 5.4 -0.6 5.3 99 0.0 SSW 26 41 14 22 - - 0.8
29/06:30am 5.1 -1.3 5.0 99 0.0 SSW 28 48 15 26 - - 0.8
29/06:00am 4.8 -2.7 4.7 99 0.0 SSW 33 54 18 29 - - 0.8
29/05:30am 4.6 -1.9 4.5 99 0.0 S 28 46 15 25 - - 0.8
29/05:00am 4.5 -4.1 4.4 99 0.0 SSW 39 61 21 33 - - 0.8
29/04:30am 4.2 -5.8 4.1 99 0.0 SSW 46 72 25 39 - - 0.8
29/04:00am 3.9 -5.2 3.8 99 0.0 SSW 41 61 22 33 - - 0.8
29/03:30am 3.7 -4.3 3.6 99 0.0 SSW 35 63 19 34 - - 0.6
29/03:07am 3.3 -4.2 3.2 99 0.0 SSW 32 54 17 29 - - 0.6
29/03:00am 3.2 -4.0 3.1 99 0.0 SSW 30 44 16 24 - - 0.6
29/02:30am 2.6 -5.1 2.5 99 0.0 SSW 32 56 17 30 - - 0.6
29/02:02am 2.3 -4.7 2.2 99 0.0 SSW 28 46 15 25 - - 0.0
29/02:00am 2.3 -4.7 2.2 99 0.0 SSW 28 43 15 23 - - 0.0
29/01:51am 2.0 -5.0 1.9 99 0.0 SSW 28 48 15 26 - - 0.0
29/01:30am 1.8 -5.6 1.7 99 0.0 SSW 30 44 16 24 - - 0.0
29/01:00am 1.6 -4.7 1.5 99 0.0 SSW 24 41 13 22 - - 0.0
29/12:30am 1.0 -5.1 0.7 98 0.1 SSW 22 33 12 18 - - 0.0
29/12:00am 0.9 -4.8 0.6 98 0.1 SW 20 26 11 14 - - 0.0
 
Date/Time
EST
Temp
°C
App
Temp
°C
Dew
Point
Rel
Hum
%
Delta-T
°C
Wind Press
QNH
hPa
Press
MSL
hPa
Rain
since 9 am
mm
Dir
 
Spd
km/h
Gust
km/h
Spd
kts
Gust
kts
28/11:30pm 0.5 -5.2 0.4 99 0.0 SSW 20 26 11 14 - - 0.0
28/11:00pm 0.3 -4.9 0.0 98 0.1 SW 17 22 9 12 - - 0.0
28/10:30pm 0.7 -4.9 0.1 96 0.2 SSW 19 28 10 15 - - 0.0
28/10:00pm 1.1 -4.5 -0.1 92 0.4 S 19 30 10 16 - - 0.0
28/09:30pm 1.1 -4.6 -1.0 86 0.8 SSW 19 30 10 16 - - 0.0
28/09:00pm 1.5 -3.6 -2.3 76 1.3 SW 15 19 8 10 - - 0.0
28/08:30pm 1.5 -4.0 -2.3 76 1.3 S 17 28 9 15 - - 0.0
28/08:00pm 1.7 -4.2 -2.4 74 1.4 S 19 26 10 14 - - 0.0
28/07:30pm 2.1 -4.0 -2.4 72 1.6 S 20 30 11 16 - - 0.0
28/07:00pm 2.6 -3.5 -2.1 71 1.7 S 20 32 11 17 - - 0.0
28/06:30pm 3.0 -3.0 -1.7 71 1.7 S 20 35 11 19 - - 0.0
28/06:00pm 3.6 -2.3 -1.0 72 1.7 S 20 35 11 19 - - 0.0
28/05:30pm 4.6 -1.2 -0.4 70 1.9 S 20 32 11 17 - - 0.0
28/05:00pm 5.8 -0.8 -0.3 65 2.4 S 24 39 13 21 - - 0.0
28/04:30pm 7.0 0.5 0.5 63 2.6 S 24 41 13 22 - - 0.0
28/04:00pm 7.5 0.3 0.5 61 2.8 S 28 46 15 25 - - 0.0
28/03:45pm 7.9 0.7 0.9 61 2.9 S 28 61 15 33 - - 0.0
28/03:30pm 9.1 3.0 0.6 55 3.5 S 22 44 12 24 - - 0.0
28/03:00pm 9.9 4.1 -0.3 49 4.2 S 20 35 11 19 - - 0.0
28/02:30pm 9.8 4.1 -1.0 47 4.3 S 19 35 10 19 - - 0.0
28/02:00pm 10.1 4.1 -1.3 45 4.5 S 20 39 11 21 - - 0.0
28/01:30pm 9.3 2.6 -1.4 47 4.2 S 24 43 13 23 - - 0.0
28/01:00pm 10.1 5.2 -0.7 47 4.4 S 15 26 8 14 - - 0.0
28/12:30pm 9.7 3.3 -1.6 45 4.5 S 22 39 12 21 - - 0.0
28/12:00pm 9.5 4.2 -0.9 48 4.2 SSE 17 28 9 15 - - 0.0
28/11:30am 9.1 3.5 0.0 53 3.7 S 19 30 10 16 - - 0.0
28/11:00am 8.2 1.7 0.4 58 3.2 SSE 24 41 13 22 - - 0.0
28/10:30am 7.3 1.4 2.0 69 2.2 S 22 39 12 21 - - 0.0
28/10:00am 7.5 1.8 2.6 71 2.1 S 22 39 12 21 - - 0.0
28/09:30am 6.6 0.6 3.4 80 1.4 S 24 39 13 21 - - 0.0
28/09:00am 5.4 1.2 3.7 89 0.7 S 15 26 8 14 - - 0.4
28/08:30am 3.6 -1.1 3.0 96 0.2 S 17 30 9 16 - - 0.4
28/08:00am 4.1 -1.8 4.0 99 0.0 S 24 35 13 19 - - 0.4
28/07:30am 3.7 -1.5 3.6 99 0.0 S 20 32 11 17 - - 0.4
28/07:00am 2.9 -1.5 2.8 99 0.0 S 15 24 8 13 - - 0.4
28/06:30am 3.1 -1.6 3.0 99 0.0 S 17 28 9 15 - - 0.4
28/06:00am 3.2 -1.1 3.1 99 0.0 S 15 24 8 13 - - 0.4
28/05:30am 3.4 -0.9 3.3 99 0.0 S 15 26 8 14 - - 0.4
28/05:00am 3.1 -1.6 3.0 99 0.0 S 17 24 9 13 - - 0.2
28/04:30am 3.2 -1.9 3.1 99 0.0 S 19 28 10 15 - - 0.2
28/04:00am 3.2 -2.1 3.1 99 0.0 S 20 28 11 15 - - 0.2
28/03:30am 3.4 -1.8 3.3 99 0.0 S 20 30 11 16 - - 0.2
28/03:00am 3.4 -2.2 3.3 99 0.0 S 22 30 12 16 - - 0.2
28/02:30am 3.6 -2.0 3.5 99 0.0 SSW 22 30 12 16 - - 0.2
28/02:00am 3.3 -1.4 3.0 98 0.1 SSW 17 26 9 14 - - 0.2
28/01:30am 3.3 -2.1 2.7 96 0.2 S 20 26 11 14 - - 0.2
28/01:00am 3.9 -0.8 3.0 94 0.4 S 17 28 9 15 - - 0.2
28/12:30am 4.0 -1.3 3.1 94 0.4 S 20 33 11 18 - - 0.2
28/12:00am 4.2 -1.8 3.3 94 0.4 S 24 33 13 18 - - 0.2
 
Date/Time
EST
Temp
°C
App
Temp
°C
Dew
Point
Rel
Hum
%
Delta-T
°C
Wind Press
QNH
hPa
Press
MSL
hPa
Rain
since 9 am
mm
Dir
 
Spd
km/h
Gust
km/h
Spd
kts
Gust
kts
27/11:30pm 4.6 -1.3 3.9 95 0.3 S 24 41 13 22 - - 0.2
27/11:00pm 4.3 -1.6 3.9 97 0.2 S 24 32 13 17 - - 0.2
27/10:30pm 4.5 -0.5 4.4 99 0.0 S 20 32 11 17 - - 0.2
27/10:00pm 4.7 -1.1 4.6 99 0.0 S 24 33 13 18 - - 0.2
27/09:30pm 4.6 -1.2 4.5 99 0.0 S 24 33 13 18 - - 0.2
27/09:00pm 4.6 -0.8 4.3 98 0.1 S 22 32 12 17 - - 0.2
27/08:30pm 5.0 -0.4 4.6 97 0.2 SSW 22 28 12 15 - - 0.2
27/08:00pm 5.1 -0.7 4.4 95 0.3 S 24 32 13 17 - - 0.2
27/07:30pm 5.4 0.0 4.5 94 0.4 S 22 32 12 17 - - 0.2
27/07:00pm 5.9 0.6 4.9 93 0.4 S 22 37 12 20 - - 0.2
27/06:30pm 6.3 1.0 4.8 90 0.7 S 22 37 12 20 - - 0.2
27/06:00pm 7.1 1.7 4.6 84 1.1 S 22 39 12 21 - - 0.2
27/05:30pm 8.3 4.0 5.1 80 1.5 S 17 26 9 14 - - 0.2
27/05:00pm 9.5 4.2 4.9 73 2.1 SSW 22 35 12 19 - - 0.2
27/04:30pm 11.3 6.7 6.4 72 2.4 SSW 20 35 11 19 - - 0.2
27/04:00pm 10.2 5.1 6.0 75 2.0 SSW 22 35 12 19 - - 0.2
27/03:30pm 12.1 7.5 6.6 69 2.7 SSW 20 35 11 19 - - 0.2
27/03:00pm 12.0 7.9 7.7 75 2.1 S 19 37 10 20 - - 0.2
27/02:30pm 12.0 7.7 7.9 76 2.0 SSW 20 33 11 18 - - 0.2
27/02:00pm 11.9 7.6 7.2 73 2.3 SSW 19 30 10 16 - - 0.2
27/01:30pm 13.3 10.5 8.4 72 2.5 SSW 13 22 7 12 - - 0.2
27/01:00pm 12.1 8.5 6.6 69 2.7 SSW 15 22 8 12 - - 0.2
27/12:30pm 13.9 10.4 7.4 65 3.2 SW 15 20 8 11 - - 0.2
27/12:00pm 12.4 9.6 7.1 70 2.6 SW 11 15 6 8 - - 0.0
27/11:30am 11.8 9.1 8.8 82 1.5 SSW 13 17 7 9 - - 0.0
27/11:00am 10.7 8.3 8.5 86 1.1 SSW 11 15 6 8 - - 0.0
27/10:30am 10.5 8.5 8.8 89 0.9 S 9 13 5 7 - - 0.0
27/10:00am 9.7 7.7 8.5 92 0.6 S 9 13 5 7 - - 0.0
27/09:30am 9.3 7.3 8.8 97 0.2 S 9 13 5 7 - - 0.0
27/09:00am 8.5 6.4 8.4 99 0.0 S 9 11 5 6 - - 0.4
27/08:30am 7.8 5.6 7.7 99 0.0 SSE 9 15 5 8 - - 0.4
27/08:00am 7.3 4.6 7.2 99 0.0 SSE 11 13 6 7 - - 0.4
27/07:30am 7.1 5.1 7.0 99 0.0 SE 7 13 4 7 - - 0.4
27/07:00am 7.1 4.7 7.0 99 0.0 SE 9 15 5 8 - - 0.4
27/06:30am 7.2 4.4 7.1 99 0.0 ESE 11 17 6 9 - - 0.4
27/06:00am 7.1 3.9 7.0 99 0.0 E 13 20 7 11 - - 0.4
27/05:30am 7.0 3.8 6.9 99 0.0 E 13 19 7 10 - - 0.4
27/05:00am 6.9 2.9 6.8 99 0.0 E 17 24 9 13 - - 0.4
27/04:30am 7.0 3.4 6.9 99 0.0 E 15 22 8 12 - - 0.4
27/04:00am 6.8 3.2 6.7 99 0.0 E 15 20 8 11 - - 0.4
27/03:30am 6.7 3.4 6.6 99 0.0 ESE 13 19 7 10 - - 0.4
27/03:00am 6.8 3.6 6.7 99 0.0 ESE 13 20 7 11 - - 0.4
27/02:30am 6.8 3.6 6.7 99 0.0 ESE 13 19 7 10 - - 0.4
27/02:00am 6.8 3.6 6.7 99 0.0 ESE 13 20 7 11 - - 0.4
27/01:30am 6.9 3.7 6.8 99 0.0 ESE 13 20 7 11 - - 0.2
27/01:00am 7.0 3.8 6.9 99 0.0 ESE 13 19 7 10 - - 0.2
27/12:30am 7.2 4.7 6.6 96 0.3 E 9 15 5 8 - - 0.0
27/12:00am 7.2 4.3 6.5 95 0.3 ESE 11 20 6 11 - - 0.0
 
Date/Time
EST
Temp
°C
App
Temp
°C
Dew
Point
Rel
Hum
%
Delta-T
°C
Wind Press
QNH
hPa
Press
MSL
hPa
Rain
since 9 am
mm
Dir
 
Spd
km/h
Gust
km/h
Spd
kts
Gust
kts
26/11:30pm 7.1 4.1 6.2 94 0.4 ESE 11 20 6 11 - - 0.0
26/11:00pm 7.2 3.8 6.1 93 0.5 ESE 13 19 7 10 - - 0.0
26/10:30pm 7.5 3.4 6.0 90 0.7 E 17 30 9 16 - - 0.0
26/10:00pm 7.4 2.7 5.2 86 1.0 E 19 28 10 15 - - 0.0
26/09:30pm 7.5 2.7 4.6 82 1.3 ESE 19 26 10 14 - - 0.0
26/09:00pm 7.7 3.7 4.7 81 1.3 E 15 24 8 13 - - 0.0
26/08:30pm 7.7 4.1 4.8 82 1.3 E 13 20 7 11 - - 0.0
26/08:00pm 7.6 3.9 4.7 82 1.3 E 13 19 7 10 - - 0.0
26/07:30pm 7.7 3.3 4.5 80 1.4 ESE 17 22 9 12 - - 0.0

Other Formats:

Comma delimited format used in spreadsheet applications
http://www.bom.gov.au/fwo/IDT60801/IDT60801.95956.axf

JavaScript Object Notation format (JSON) in row-major order
http://www.bom.gov.au/fwo/IDT60801/IDT60801.95956.json